sensor_id;sensor_type;location;lat;lon;timestamp;P1;durP1;ratioP1;P2;durP2;ratioP2
72379;SDS011;60354;47.798;12.472;2023-02-10T00:00:44;6.25;;;3.00;;
72379;SDS011;60354;47.798;12.472;2023-02-10T00:03:10;5.70;;;3.03;;
72379;SDS011;60354;47.798;12.472;2023-02-10T00:05:35;5.50;;;2.78;;
72379;SDS011;60354;47.798;12.472;2023-02-10T00:08:01;6.38;;;2.75;;
72379;SDS011;60354;47.798;12.472;2023-02-10T00:10:26;6.22;;;3.40;;
72379;SDS011;60354;47.798;12.472;2023-02-10T00:12:52;8.82;;;3.33;;
72379;SDS011;60354;47.798;12.472;2023-02-10T00:15:17;6.00;;;3.00;;
72379;SDS011;60354;47.798;12.472;2023-02-10T00:17:43;8.18;;;3.50;;
72379;SDS011;60354;47.798;12.472;2023-02-10T00:20:08;7.30;;;2.95;;
72379;SDS011;60354;47.798;12.472;2023-02-10T00:22:35;7.30;;;3.03;;
72379;SDS011;60354;47.798;12.472;2023-02-10T00:25:01;6.28;;;3.25;;
72379;SDS011;60354;47.798;12.472;2023-02-10T00:27:26;6.28;;;3.22;;
72379;SDS011;60354;47.798;12.472;2023-02-10T00:29:54;6.65;;;3.17;;
72379;SDS011;60354;47.798;12.472;2023-02-10T00:32:19;9.68;;;3.40;;
72379;SDS011;60354;47.798;12.472;2023-02-10T00:34:45;7.10;;;2.83;;
72379;SDS011;60354;47.798;12.472;2023-02-10T00:37:11;6.68;;;2.97;;
72379;SDS011;60354;47.798;12.472;2023-02-10T00:39:37;6.18;;;3.17;;
72379;SDS011;60354;47.798;12.472;2023-02-10T00:42:03;5.07;;;2.63;;
72379;SDS011;60354;47.798;12.472;2023-02-10T00:44:28;5.47;;;2.55;;
72379;SDS011;60354;47.798;12.472;2023-02-10T00:46:55;9.02;;;3.05;;
72379;SDS011;60354;47.798;12.472;2023-02-10T00:49:20;6.00;;;2.55;;
72379;SDS011;60354;47.798;12.472;2023-02-10T00:51:46;6.97;;;2.90;;
72379;SDS011;60354;47.798;12.472;2023-02-10T00:54:11;5.10;;;2.60;;
72379;SDS011;60354;47.798;12.472;2023-02-10T00:56:38;6.82;;;2.83;;
72379;SDS011;60354;47.798;12.472;2023-02-10T00:59:03;6.10;;;2.78;;
72379;SDS011;60354;47.798;12.472;2023-02-10T01:01:29;5.10;;;2.58;;
72379;SDS011;60354;47.798;12.472;2023-02-10T01:03:55;6.18;;;2.83;;
72379;SDS011;60354;47.798;12.472;2023-02-10T01:06:20;6.07;;;2.67;;
72379;SDS011;60354;47.798;12.472;2023-02-10T01:08:46;6.20;;;2.65;;
72379;SDS011;60354;47.798;12.472;2023-02-10T01:11:12;6.00;;;2.83;;
72379;SDS011;60354;47.798;12.472;2023-02-10T01:13:38;5.32;;;3.00;;
72379;SDS011;60354;47.798;12.472;2023-02-10T01:16:06;5.82;;;2.47;;
72379;SDS011;60354;47.798;12.472;2023-02-10T01:18:35;6.15;;;2.90;;
72379;SDS011;60354;47.798;12.472;2023-02-10T01:21:06;6.25;;;2.70;;
72379;SDS011;60354;47.798;12.472;2023-02-10T01:23:36;5.28;;;2.75;;
72379;SDS011;60354;47.798;12.472;2023-02-10T01:26:01;5.28;;;2.67;;
72379;SDS011;60354;47.798;12.472;2023-02-10T01:28:27;5.40;;;2.58;;
72379;SDS011;60354;47.798;12.472;2023-02-10T01:30:53;4.28;;;2.45;;
72379;SDS011;60354;47.798;12.472;2023-02-10T01:33:18;5.50;;;2.80;;
72379;SDS011;60354;47.798;12.472;2023-02-10T01:35:44;7.47;;;3.22;;
72379;SDS011;60354;47.798;12.472;2023-02-10T01:38:09;5.05;;;2.60;;
72379;SDS011;60354;47.798;12.472;2023-02-10T01:40:35;7.50;;;2.80;;
72379;SDS011;60354;47.798;12.472;2023-02-10T01:43:00;5.82;;;2.60;;
72379;SDS011;60354;47.798;12.472;2023-02-10T01:47:54;5.30;;;2.58;;
72379;SDS011;60354;47.798;12.472;2023-02-10T01:50:22;4.70;;;2.60;;
72379;SDS011;60354;47.798;12.472;2023-02-10T01:52:51;6.93;;;2.70;;
72379;SDS011;60354;47.798;12.472;2023-02-10T01:55:18;5.60;;;2.70;;
72379;SDS011;60354;47.798;12.472;2023-02-10T01:57:47;4.55;;;2.40;;
72379;SDS011;60354;47.798;12.472;2023-02-10T02:00:19;6.38;;;2.55;;
72379;SDS011;60354;47.798;12.472;2023-02-10T02:02:45;4.57;;;2.55;;
72379;SDS011;60354;47.798;12.472;2023-02-10T02:05:27;4.45;;;2.70;;
72379;SDS011;60354;47.798;12.472;2023-02-10T02:07:54;5.25;;;2.65;;
72379;SDS011;60354;47.798;12.472;2023-02-10T02:10:20;7.97;;;2.35;;
72379;SDS011;60354;47.798;12.472;2023-02-10T02:12:57;7.30;;;2.80;;
72379;SDS011;60354;47.798;12.472;2023-02-10T02:18:15;6.03;;;2.67;;
72379;SDS011;60354;47.798;12.472;2023-02-10T02:23:37;4.80;;;2.80;;
72379;SDS011;60354;47.798;12.472;2023-02-10T02:34:15;8.13;;;2.53;;
72379;SDS011;60354;47.798;12.472;2023-02-10T02:36:57;6.93;;;2.63;;
72379;SDS011;60354;47.798;12.472;2023-02-10T02:39:26;6.50;;;2.65;;
72379;SDS011;60354;47.798;12.472;2023-02-10T02:44:37;5.30;;;2.55;;
72379;SDS011;60354;47.798;12.472;2023-02-10T02:47:13;4.88;;;2.70;;
72379;SDS011;60354;47.798;12.472;2023-02-10T02:52:52;5.65;;;2.88;;
72379;SDS011;60354;47.798;12.472;2023-02-10T02:59:04;7.18;;;3.00;;
72379;SDS011;60354;47.798;12.472;2023-02-10T03:01:43;5.05;;;2.70;;
72379;SDS011;60354;47.798;12.472;2023-02-10T03:04:15;5.38;;;2.53;;
72379;SDS011;60354;47.798;12.472;2023-02-10T03:06:41;5.90;;;2.88;;
72379;SDS011;60354;47.798;12.472;2023-02-10T03:09:07;5.50;;;2.50;;
72379;SDS011;60354;47.798;12.472;2023-02-10T03:11:33;5.07;;;2.83;;
72379;SDS011;60354;47.798;12.472;2023-02-10T03:13:58;5.75;;;2.67;;
72379;SDS011;60354;47.798;12.472;2023-02-10T03:16:27;4.25;;;2.55;;
72379;SDS011;60354;47.798;12.472;2023-02-10T03:18:52;5.47;;;2.97;;
72379;SDS011;60354;47.798;12.472;2023-02-10T03:21:18;5.35;;;2.80;;
72379;SDS011;60354;47.798;12.472;2023-02-10T03:23:43;6.13;;;2.50;;
72379;SDS011;60354;47.798;12.472;2023-02-10T03:26:09;6.35;;;2.75;;
72379;SDS011;60354;47.798;12.472;2023-02-10T03:28:34;5.50;;;2.70;;
72379;SDS011;60354;47.798;12.472;2023-02-10T03:31:03;4.93;;;2.72;;
72379;SDS011;60354;47.798;12.472;2023-02-10T03:33:30;6.68;;;2.67;;
72379;SDS011;60354;47.798;12.472;2023-02-10T03:35:56;4.90;;;2.58;;
72379;SDS011;60354;47.798;12.472;2023-02-10T03:38:23;5.15;;;2.70;;
72379;SDS011;60354;47.798;12.472;2023-02-10T03:40:50;6.10;;;2.78;;
72379;SDS011;60354;47.798;12.472;2023-02-10T03:43:17;7.30;;;2.67;;
72379;SDS011;60354;47.798;12.472;2023-02-10T03:45:43;5.75;;;2.50;;
72379;SDS011;60354;47.798;12.472;2023-02-10T03:48:09;4.55;;;2.60;;
72379;SDS011;60354;47.798;12.472;2023-02-10T03:50:34;5.65;;;2.92;;
72379;SDS011;60354;47.798;12.472;2023-02-10T03:53:00;5.70;;;2.85;;
72379;SDS011;60354;47.798;12.472;2023-02-10T03:55:26;6.43;;;2.75;;
72379;SDS011;60354;47.798;12.472;2023-02-10T03:57:52;6.50;;;2.97;;
72379;SDS011;60354;47.798;12.472;2023-02-10T04:00:17;5.75;;;2.90;;
72379;SDS011;60354;47.798;12.472;2023-02-10T04:02:43;7.95;;;2.80;;
72379;SDS011;60354;47.798;12.472;2023-02-10T04:05:09;6.18;;;3.20;;
72379;SDS011;60354;47.798;12.472;2023-02-10T04:07:34;5.55;;;2.95;;
72379;SDS011;60354;47.798;12.472;2023-02-10T04:10:00;7.38;;;3.28;;
72379;SDS011;60354;47.798;12.472;2023-02-10T04:12:25;7.65;;;2.90;;
72379;SDS011;60354;47.798;12.472;2023-02-10T04:14:51;10.02;;;2.72;;
72379;SDS011;60354;47.798;12.472;2023-02-10T04:17:16;5.25;;;2.17;;
72379;SDS011;60354;47.798;12.472;2023-02-10T04:19:42;6.82;;;2.55;;
72379;SDS011;60354;47.798;12.472;2023-02-10T04:22:07;5.13;;;2.65;;
72379;SDS011;60354;47.798;12.472;2023-02-10T04:24:33;7.07;;;2.60;;
72379;SDS011;60354;47.798;12.472;2023-02-10T04:26:58;5.60;;;3.05;;
72379;SDS011;60354;47.798;12.472;2023-02-10T04:29:23;10.98;;;3.85;;
72379;SDS011;60354;47.798;12.472;2023-02-10T04:31:49;7.75;;;3.53;;
72379;SDS011;60354;47.798;12.472;2023-02-10T04:34:14;9.25;;;3.50;;
72379;SDS011;60354;47.798;12.472;2023-02-10T04:36:40;5.97;;;2.90;;
72379;SDS011;60354;47.798;12.472;2023-02-10T04:39:06;6.65;;;3.10;;
72379;SDS011;60354;47.798;12.472;2023-02-10T04:41:31;7.00;;;3.00;;
72379;SDS011;60354;47.798;12.472;2023-02-10T04:43:57;6.47;;;3.13;;
72379;SDS011;60354;47.798;12.472;2023-02-10T04:46:22;6.63;;;2.88;;
72379;SDS011;60354;47.798;12.472;2023-02-10T04:48:48;8.82;;;4.55;;
72379;SDS011;60354;47.798;12.472;2023-02-10T04:51:13;7.35;;;3.28;;
72379;SDS011;60354;47.798;12.472;2023-02-10T04:53:39;5.90;;;2.97;;
72379;SDS011;60354;47.798;12.472;2023-02-10T04:56:06;6.78;;;3.00;;
72379;SDS011;60354;47.798;12.472;2023-02-10T04:58:32;4.90;;;2.78;;
72379;SDS011;60354;47.798;12.472;2023-02-10T05:00:57;6.38;;;2.80;;
72379;SDS011;60354;47.798;12.472;2023-02-10T05:03:23;5.72;;;3.08;;
72379;SDS011;60354;47.798;12.472;2023-02-10T05:05:49;5.47;;;2.63;;
72379;SDS011;60354;47.798;12.472;2023-02-10T05:08:16;6.10;;;2.80;;
72379;SDS011;60354;47.798;12.472;2023-02-10T05:10:46;7.35;;;2.90;;
72379;SDS011;60354;47.798;12.472;2023-02-10T05:13:12;4.68;;;2.60;;
72379;SDS011;60354;47.798;12.472;2023-02-10T05:15:37;5.20;;;2.70;;
72379;SDS011;60354;47.798;12.472;2023-02-10T05:18:03;6.07;;;2.70;;
72379;SDS011;60354;47.798;12.472;2023-02-10T05:20:28;5.30;;;2.80;;
72379;SDS011;60354;47.798;12.472;2023-02-10T05:22:54;5.97;;;2.47;;
72379;SDS011;60354;47.798;12.472;2023-02-10T05:25:19;5.05;;;2.70;;
72379;SDS011;60354;47.798;12.472;2023-02-10T05:27:45;6.90;;;3.08;;
72379;SDS011;60354;47.798;12.472;2023-02-10T05:30:10;5.22;;;2.75;;
72379;SDS011;60354;47.798;12.472;2023-02-10T05:32:38;9.85;;;2.92;;
72379;SDS011;60354;47.798;12.472;2023-02-10T05:35:04;6.10;;;3.15;;
72379;SDS011;60354;47.798;12.472;2023-02-10T05:37:30;4.97;;;2.72;;
72379;SDS011;60354;47.798;12.472;2023-02-10T05:39:56;6.05;;;2.90;;
72379;SDS011;60354;47.798;12.472;2023-02-10T05:42:22;6.93;;;3.05;;
72379;SDS011;60354;47.798;12.472;2023-02-10T05:44:47;6.68;;;2.90;;
72379;SDS011;60354;47.798;12.472;2023-02-10T05:47:13;6.95;;;2.85;;
72379;SDS011;60354;47.798;12.472;2023-02-10T05:49:38;7.50;;;3.15;;
72379;SDS011;60354;47.798;12.472;2023-02-10T05:52:04;5.07;;;2.60;;
72379;SDS011;60354;47.798;12.472;2023-02-10T05:54:29;6.65;;;2.97;;
72379;SDS011;60354;47.798;12.472;2023-02-10T05:56:55;6.78;;;2.85;;
72379;SDS011;60354;47.798;12.472;2023-02-10T05:59:21;5.78;;;3.13;;
72379;SDS011;60354;47.798;12.472;2023-02-10T06:01:46;7.60;;;3.35;;
72379;SDS011;60354;47.798;12.472;2023-02-10T06:04:12;6.35;;;3.10;;
72379;SDS011;60354;47.798;12.472;2023-02-10T06:06:38;6.78;;;3.20;;
72379;SDS011;60354;47.798;12.472;2023-02-10T06:09:03;6.60;;;3.38;;
72379;SDS011;60354;47.798;12.472;2023-02-10T06:11:29;5.20;;;2.67;;
72379;SDS011;60354;47.798;12.472;2023-02-10T06:13:55;5.60;;;3.25;;
72379;SDS011;60354;47.798;12.472;2023-02-10T06:16:21;5.55;;;3.03;;
72379;SDS011;60354;47.798;12.472;2023-02-10T06:18:46;6.80;;;3.33;;
72379;SDS011;60354;47.798;12.472;2023-02-10T06:21:13;5.80;;;2.90;;
72379;SDS011;60354;47.798;12.472;2023-02-10T06:23:42;7.03;;;3.03;;
72379;SDS011;60354;47.798;12.472;2023-02-10T06:26:08;4.80;;;2.65;;
72379;SDS011;60354;47.798;12.472;2023-02-10T06:28:33;5.13;;;2.60;;
72379;SDS011;60354;47.798;12.472;2023-02-10T06:30:59;5.90;;;2.70;;
72379;SDS011;60354;47.798;12.472;2023-02-10T06:33:24;6.70;;;2.88;;
72379;SDS011;60354;47.798;12.472;2023-02-10T06:35:50;5.53;;;2.70;;
72379;SDS011;60354;47.798;12.472;2023-02-10T06:38:16;6.53;;;3.00;;
72379;SDS011;60354;47.798;12.472;2023-02-10T06:40:41;7.55;;;3.30;;
72379;SDS011;60354;47.798;12.472;2023-02-10T06:43:07;5.13;;;2.67;;
72379;SDS011;60354;47.798;12.472;2023-02-10T06:45:33;5.70;;;2.83;;
72379;SDS011;60354;47.798;12.472;2023-02-10T06:48:00;4.40;;;2.58;;
72379;SDS011;60354;47.798;12.472;2023-02-10T06:50:26;5.30;;;2.47;;
72379;SDS011;60354;47.798;12.472;2023-02-10T06:52:52;5.22;;;2.60;;
72379;SDS011;60354;47.798;12.472;2023-02-10T06:55:17;4.10;;;2.40;;
72379;SDS011;60354;47.798;12.472;2023-02-10T06:57:43;9.15;;;3.10;;
72379;SDS011;60354;47.798;12.472;2023-02-10T07:00:09;7.32;;;2.80;;
72379;SDS011;60354;47.798;12.472;2023-02-10T07:02:38;9.75;;;3.28;;
72379;SDS011;60354;47.798;12.472;2023-02-10T07:05:05;6.38;;;2.95;;
72379;SDS011;60354;47.798;12.472;2023-02-10T07:07:32;7.68;;;3.78;;
72379;SDS011;60354;47.798;12.472;2023-02-10T07:09:59;5.60;;;3.10;;
72379;SDS011;60354;47.798;12.472;2023-02-10T07:12:24;6.75;;;2.90;;
72379;SDS011;60354;47.798;12.472;2023-02-10T07:14:52;7.28;;;2.90;;
72379;SDS011;60354;47.798;12.472;2023-02-10T07:17:18;7.60;;;3.10;;
72379;SDS011;60354;47.798;12.472;2023-02-10T07:19:44;6.15;;;3.05;;
72379;SDS011;60354;47.798;12.472;2023-02-10T07:22:10;5.78;;;2.83;;
72379;SDS011;60354;47.798;12.472;2023-02-10T07:24:35;7.43;;;2.60;;
72379;SDS011;60354;47.798;12.472;2023-02-10T07:27:01;4.40;;;2.60;;
72379;SDS011;60354;47.798;12.472;2023-02-10T07:29:27;7.03;;;3.05;;
72379;SDS011;60354;47.798;12.472;2023-02-10T07:31:53;5.90;;;2.65;;
72379;SDS011;60354;47.798;12.472;2023-02-10T07:34:19;6.13;;;2.95;;
72379;SDS011;60354;47.798;12.472;2023-02-10T07:36:46;12.63;;;5.60;;
72379;SDS011;60354;47.798;12.472;2023-02-10T07:39:18;11.18;;;5.28;;
72379;SDS011;60354;47.798;12.472;2023-02-10T07:41:44;13.30;;;5.95;;
72379;SDS011;60354;47.798;12.472;2023-02-10T07:44:10;15.20;;;5.10;;
72379;SDS011;60354;47.798;12.472;2023-02-10T07:46:35;9.27;;;4.07;;
72379;SDS011;60354;47.798;12.472;2023-02-10T07:49:01;6.28;;;3.10;;
72379;SDS011;60354;47.798;12.472;2023-02-10T07:51:26;7.20;;;2.90;;
72379;SDS011;60354;47.798;12.472;2023-02-10T07:53:52;7.55;;;4.07;;
72379;SDS011;60354;47.798;12.472;2023-02-10T07:56:17;6.28;;;3.10;;
72379;SDS011;60354;47.798;12.472;2023-02-10T07:58:43;11.32;;;3.95;;
72379;SDS011;60354;47.798;12.472;2023-02-10T08:01:09;9.15;;;4.22;;
72379;SDS011;60354;47.798;12.472;2023-02-10T08:03:35;7.78;;;3.78;;
72379;SDS011;60354;47.798;12.472;2023-02-10T08:06:02;8.32;;;3.85;;
72379;SDS011;60354;47.798;12.472;2023-02-10T08:08:28;7.63;;;3.58;;
72379;SDS011;60354;47.798;12.472;2023-02-10T08:10:53;6.88;;;3.10;;
72379;SDS011;60354;47.798;12.472;2023-02-10T08:13:19;8.00;;;3.00;;
72379;SDS011;60354;47.798;12.472;2023-02-10T08:15:45;7.72;;;4.18;;
72379;SDS011;60354;47.798;12.472;2023-02-10T08:18:11;7.30;;;3.92;;
72379;SDS011;60354;47.798;12.472;2023-02-10T08:20:37;10.05;;;5.00;;
72379;SDS011;60354;47.798;12.472;2023-02-10T08:23:02;8.88;;;4.68;;
72379;SDS011;60354;47.798;12.472;2023-02-10T08:25:28;7.80;;;3.60;;
72379;SDS011;60354;47.798;12.472;2023-02-10T08:27:54;7.22;;;3.55;;
72379;SDS011;60354;47.798;12.472;2023-02-10T08:30:19;9.00;;;4.50;;
72379;SDS011;60354;47.798;12.472;2023-02-10T08:32:45;8.90;;;3.90;;
72379;SDS011;60354;47.798;12.472;2023-02-10T08:35:10;5.07;;;3.05;;
72379;SDS011;60354;47.798;12.472;2023-02-10T08:37:36;9.20;;;4.00;;
72379;SDS011;60354;47.798;12.472;2023-02-10T08:40:02;6.22;;;3.28;;
72379;SDS011;60354;47.798;12.472;2023-02-10T08:42:31;7.20;;;3.50;;
72379;SDS011;60354;47.798;12.472;2023-02-10T08:44:57;6.70;;;3.35;;
72379;SDS011;60354;47.798;12.472;2023-02-10T08:47:24;4.95;;;2.75;;
72379;SDS011;60354;47.798;12.472;2023-02-10T08:49:49;5.93;;;3.15;;
72379;SDS011;60354;47.798;12.472;2023-02-10T08:52:15;11.38;;;3.33;;
72379;SDS011;60354;47.798;12.472;2023-02-10T08:54:41;6.65;;;3.25;;
72379;SDS011;60354;47.798;12.472;2023-02-10T08:57:07;6.38;;;3.15;;
72379;SDS011;60354;47.798;12.472;2023-02-10T08:59:32;8.00;;;2.90;;
72379;SDS011;60354;47.798;12.472;2023-02-10T09:01:58;5.30;;;2.97;;
72379;SDS011;60354;47.798;12.472;2023-02-10T09:04:24;6.63;;;3.00;;
72379;SDS011;60354;47.798;12.472;2023-02-10T09:06:49;8.07;;;3.20;;
72379;SDS011;60354;47.798;12.472;2023-02-10T09:09:16;6.25;;;3.15;;
72379;SDS011;60354;47.798;12.472;2023-02-10T09:11:50;5.57;;;2.67;;
72379;SDS011;60354;47.798;12.472;2023-02-10T09:14:16;6.63;;;3.30;;
72379;SDS011;60354;47.798;12.472;2023-02-10T09:16:42;5.88;;;3.10;;
72379;SDS011;60354;47.798;12.472;2023-02-10T09:19:08;5.55;;;3.33;;
72379;SDS011;60354;47.798;12.472;2023-02-10T09:21:34;9.00;;;3.80;;
72379;SDS011;60354;47.798;12.472;2023-02-10T09:23:59;7.25;;;2.80;;
72379;SDS011;60354;47.798;12.472;2023-02-10T09:26:25;6.18;;;3.28;;
72379;SDS011;60354;47.798;12.472;2023-02-10T09:28:50;6.18;;;3.30;;
72379;SDS011;60354;47.798;12.472;2023-02-10T09:31:16;5.45;;;3.13;;
72379;SDS011;60354;47.798;12.472;2023-02-10T09:33:42;8.32;;;3.35;;
72379;SDS011;60354;47.798;12.472;2023-02-10T09:36:10;8.50;;;4.05;;
72379;SDS011;60354;47.798;12.472;2023-02-10T09:38:38;8.45;;;3.53;;
72379;SDS011;60354;47.798;12.472;2023-02-10T09:54:57;7.30;;;3.55;;
72379;SDS011;60354;47.798;12.472;2023-02-10T09:57:31;5.20;;;3.20;;
72379;SDS011;60354;47.798;12.472;2023-02-10T10:00:03;6.80;;;3.28;;
72379;SDS011;60354;47.798;12.472;2023-02-10T10:02:45;7.03;;;3.08;;
72379;SDS011;60354;47.798;12.472;2023-02-10T10:05:16;6.78;;;3.30;;
72379;SDS011;60354;47.798;12.472;2023-02-10T10:07:49;6.95;;;3.67;;
72379;SDS011;60354;47.798;12.472;2023-02-10T10:10:29;9.63;;;4.38;;
72379;SDS011;60354;47.798;12.472;2023-02-10T10:13:07;9.23;;;4.35;;
72379;SDS011;60354;47.798;12.472;2023-02-10T10:15:40;8.98;;;5.10;;
72379;SDS011;60354;47.798;12.472;2023-02-10T10:21:17;7.45;;;3.75;;
72379;SDS011;60354;47.798;12.472;2023-02-10T10:32:31;4.57;;;2.88;;
72379;SDS011;60354;47.798;12.472;2023-02-10T10:34:51;6.05;;;3.10;;
72379;SDS011;60354;47.798;12.472;2023-02-10T10:37:19;6.05;;;3.38;;
72379;SDS011;60354;47.798;12.472;2023-02-10T10:40:05;5.45;;;3.00;;
72379;SDS011;60354;47.798;12.472;2023-02-10T10:42:43;6.63;;;3.05;;
72379;SDS011;60354;47.798;12.472;2023-02-10T10:45:19;5.60;;;3.30;;
72379;SDS011;60354;47.798;12.472;2023-02-10T10:47:50;6.53;;;3.15;;
72379;SDS011;60354;47.798;12.472;2023-02-10T10:50:21;8.88;;;3.13;;
72379;SDS011;60354;47.798;12.472;2023-02-10T10:52:52;6.38;;;3.15;;
72379;SDS011;60354;47.798;12.472;2023-02-10T10:55:21;5.80;;;3.10;;
72379;SDS011;60354;47.798;12.472;2023-02-10T10:57:51;6.13;;;3.38;;
72379;SDS011;60354;47.798;12.472;2023-02-10T11:00:19;5.90;;;3.40;;
72379;SDS011;60354;47.798;12.472;2023-02-10T11:02:55;7.40;;;3.70;;
72379;SDS011;60354;47.798;12.472;2023-02-10T11:05:35;6.45;;;3.65;;
72379;SDS011;60354;47.798;12.472;2023-02-10T11:08:03;5.93;;;3.15;;
72379;SDS011;60354;47.798;12.472;2023-02-10T11:10:47;9.43;;;3.20;;
72379;SDS011;60354;47.798;12.472;2023-02-10T11:13:21;9.00;;;4.78;;
72379;SDS011;60354;47.798;12.472;2023-02-10T11:15:57;8.77;;;3.88;;
72379;SDS011;60354;47.798;12.472;2023-02-10T11:18:25;9.23;;;3.80;;
72379;SDS011;60354;47.798;12.472;2023-02-10T11:20:55;7.03;;;4.30;;
72379;SDS011;60354;47.798;12.472;2023-02-10T11:23:26;6.57;;;3.35;;
72379;SDS011;60354;47.798;12.472;2023-02-10T11:25:57;7.97;;;4.32;;
72379;SDS011;60354;47.798;12.472;2023-02-10T11:28:29;7.75;;;4.00;;
72379;SDS011;60354;47.798;12.472;2023-02-10T11:31:00;9.50;;;4.60;;
72379;SDS011;60354;47.798;12.472;2023-02-10T11:33:30;8.82;;;4.80;;
72379;SDS011;60354;47.798;12.472;2023-02-10T11:35:59;6.97;;;4.30;;
72379;SDS011;60354;47.798;12.472;2023-02-10T11:38:30;8.18;;;4.82;;
72379;SDS011;60354;47.798;12.472;2023-02-10T11:40:58;10.25;;;5.15;;
72379;SDS011;60354;47.798;12.472;2023-02-10T11:43:30;11.45;;;6.43;;
72379;SDS011;60354;47.798;12.472;2023-02-10T11:48:55;11.43;;;5.22;;
72379;SDS011;60354;47.798;12.472;2023-02-10T11:51:26;10.43;;;5.03;;
72379;SDS011;60354;47.798;12.472;2023-02-10T11:53:52;12.88;;;6.78;;
72379;SDS011;60354;47.798;12.472;2023-02-10T12:15:34;16.67;;;8.88;;
72379;SDS011;60354;47.798;12.472;2023-02-10T12:27:22;20.52;;;7.93;;
72379;SDS011;60354;47.798;12.472;2023-02-10T12:29:58;14.50;;;7.68;;
72379;SDS011;60354;47.798;12.472;2023-02-10T12:36:02;13.18;;;6.85;;
72379;SDS011;60354;47.798;12.472;2023-02-10T12:41:36;11.38;;;6.63;;
72379;SDS011;60354;47.798;12.472;2023-02-10T12:50:07;16.23;;;8.55;;
72379;SDS011;60354;47.798;12.472;2023-02-10T12:58:21;20.40;;;11.38;;
72379;SDS011;60354;47.798;12.472;2023-02-10T13:00:53;25.65;;;12.15;;
72379;SDS011;60354;47.798;12.472;2023-02-10T13:03:23;26.15;;;13.00;;
72379;SDS011;60354;47.798;12.472;2023-02-10T13:05:53;19.23;;;9.98;;
72379;SDS011;60354;47.798;12.472;2023-02-10T13:08:24;25.52;;;15.45;;
72379;SDS011;60354;47.798;12.472;2023-02-10T13:13:24;21.15;;;10.90;;
72379;SDS011;60354;47.798;12.472;2023-02-10T13:15:53;21.13;;;11.10;;
72379;SDS011;60354;47.798;12.472;2023-02-10T13:18:24;23.30;;;11.43;;
72379;SDS011;60354;47.798;12.472;2023-02-10T13:20:58;23.40;;;11.48;;
72379;SDS011;60354;47.798;12.472;2023-02-10T13:28:45;18.27;;;10.68;;
72379;SDS011;60354;47.798;12.472;2023-02-10T13:36:40;21.60;;;11.35;;
72379;SDS011;60354;47.798;12.472;2023-02-10T13:39:18;19.70;;;10.88;;
72379;SDS011;60354;47.798;12.472;2023-02-10T13:41:47;20.98;;;10.63;;
72379;SDS011;60354;47.798;12.472;2023-02-10T13:44:37;20.42;;;11.10;;
72379;SDS011;60354;47.798;12.472;2023-02-10T13:52:55;20.83;;;11.38;;
72379;SDS011;60354;47.798;12.472;2023-02-10T14:00:42;19.00;;;10.77;;
72379;SDS011;60354;47.798;12.472;2023-02-10T14:08:26;21.88;;;11.43;;
72379;SDS011;60354;47.798;12.472;2023-02-10T14:11:35;20.27;;;10.90;;
72379;SDS011;60354;47.798;12.472;2023-02-10T14:13:41;19.98;;;10.32;;
72379;SDS011;60354;47.798;12.472;2023-02-10T14:18:40;18.10;;;10.40;;
72379;SDS011;60354;47.798;12.472;2023-02-10T14:21:12;20.58;;;10.50;;
72379;SDS011;60354;47.798;12.472;2023-02-10T14:23:41;21.55;;;9.68;;
72379;SDS011;60354;47.798;12.472;2023-02-10T14:26:15;22.45;;;10.30;;
72379;SDS011;60354;47.798;12.472;2023-02-10T14:28:46;16.73;;;9.50;;
72379;SDS011;60354;47.798;12.472;2023-02-10T14:31:19;19.50;;;9.80;;
72379;SDS011;60354;47.798;12.472;2023-02-10T14:33:53;21.88;;;9.43;;
72379;SDS011;60354;47.798;12.472;2023-02-10T14:36:20;17.20;;;9.32;;
72379;SDS011;60354;47.798;12.472;2023-02-10T14:38:50;17.98;;;9.75;;
72379;SDS011;60354;47.798;12.472;2023-02-10T14:43:46;18.13;;;9.50;;
72379;SDS011;60354;47.798;12.472;2023-02-10T14:46:24;17.15;;;9.13;;
72379;SDS011;60354;47.798;12.472;2023-02-10T14:48:57;17.58;;;9.50;;
72379;SDS011;60354;47.798;12.472;2023-02-10T14:51:25;17.63;;;9.18;;
72379;SDS011;60354;47.798;12.472;2023-02-10T14:53:52;15.73;;;9.20;;
72379;SDS011;60354;47.798;12.472;2023-02-10T14:56:25;19.77;;;9.57;;
72379;SDS011;60354;47.798;12.472;2023-02-10T14:58:52;17.38;;;9.15;;
72379;SDS011;60354;47.798;12.472;2023-02-10T15:03:44;16.50;;;8.77;;
72379;SDS011;60354;47.798;12.472;2023-02-10T15:06:19;18.58;;;8.70;;
72379;SDS011;60354;47.798;12.472;2023-02-10T15:11:41;16.70;;;9.32;;
72379;SDS011;60354;47.798;12.472;2023-02-10T15:14:28;17.70;;;9.38;;
72379;SDS011;60354;47.798;12.472;2023-02-10T15:16:59;17.60;;;9.30;;
72379;SDS011;60354;47.798;12.472;2023-02-10T15:19:28;21.23;;;9.75;;
72379;SDS011;60354;47.798;12.472;2023-02-10T15:21:54;23.33;;;10.98;;
72379;SDS011;60354;47.798;12.472;2023-02-10T15:24:30;15.48;;;8.85;;
72379;SDS011;60354;47.798;12.472;2023-02-10T15:27:16;18.52;;;9.25;;
72379;SDS011;60354;47.798;12.472;2023-02-10T15:29:43;16.30;;;9.05;;
72379;SDS011;60354;47.798;12.472;2023-02-10T15:32:20;18.40;;;9.73;;
72379;SDS011;60354;47.798;12.472;2023-02-10T15:34:47;24.65;;;11.90;;
72379;SDS011;60354;47.798;12.472;2023-02-10T15:37:19;21.40;;;10.23;;
72379;SDS011;60354;47.798;12.472;2023-02-10T15:39:56;17.35;;;9.32;;
72379;SDS011;60354;47.798;12.472;2023-02-10T15:42:25;21.15;;;9.25;;
72379;SDS011;60354;47.798;12.472;2023-02-10T15:47:41;20.50;;;9.57;;
72379;SDS011;60354;47.798;12.472;2023-02-10T15:50:10;23.42;;;10.00;;
72379;SDS011;60354;47.798;12.472;2023-02-10T15:52:40;20.50;;;9.85;;
72379;SDS011;60354;47.798;12.472;2023-02-10T15:55:18;20.30;;;9.60;;
72379;SDS011;60354;47.798;12.472;2023-02-10T15:57:53;17.13;;;9.50;;
72379;SDS011;60354;47.798;12.472;2023-02-10T16:02:47;17.05;;;9.15;;
72379;SDS011;60354;47.798;12.472;2023-02-10T16:05:13;15.70;;;8.00;;
72379;SDS011;60354;47.798;12.472;2023-02-10T16:07:38;20.85;;;11.93;;
72379;SDS011;60354;47.798;12.472;2023-02-10T16:10:05;23.63;;;10.55;;
72379;SDS011;60354;47.798;12.472;2023-02-10T16:12:31;19.48;;;9.52;;
72379;SDS011;60354;47.798;12.472;2023-02-10T16:14:57;18.00;;;9.07;;
72379;SDS011;60354;47.798;12.472;2023-02-10T16:17:27;15.57;;;8.73;;
72379;SDS011;60354;47.798;12.472;2023-02-10T16:19:58;15.57;;;8.30;;
72379;SDS011;60354;47.798;12.472;2023-02-10T16:22:24;17.00;;;8.48;;
72379;SDS011;60354;47.798;12.472;2023-02-10T16:24:49;14.82;;;8.55;;
72379;SDS011;60354;47.798;12.472;2023-02-10T16:27:16;12.15;;;7.72;;
72379;SDS011;60354;47.798;12.472;2023-02-10T16:29:42;17.92;;;9.40;;
72379;SDS011;60354;47.798;12.472;2023-02-10T16:32:08;17.60;;;9.02;;
72379;SDS011;60354;47.798;12.472;2023-02-10T16:34:36;18.15;;;9.50;;
72379;SDS011;60354;47.798;12.472;2023-02-10T16:37:04;20.27;;;10.07;;
72379;SDS011;60354;47.798;12.472;2023-02-10T16:39:29;22.17;;;10.68;;
72379;SDS011;60354;47.798;12.472;2023-02-10T16:41:55;22.88;;;9.55;;
72379;SDS011;60354;47.798;12.472;2023-02-10T16:44:21;17.95;;;8.93;;
72379;SDS011;60354;47.798;12.472;2023-02-10T16:46:47;14.15;;;8.20;;
72379;SDS011;60354;47.798;12.472;2023-02-10T16:49:13;15.35;;;8.20;;
72379;SDS011;60354;47.798;12.472;2023-02-10T16:51:40;15.00;;;7.95;;
72379;SDS011;60354;47.798;12.472;2023-02-10T16:54:06;15.48;;;8.20;;
72379;SDS011;60354;47.798;12.472;2023-02-10T16:56:37;14.00;;;8.00;;
72379;SDS011;60354;47.798;12.472;2023-02-10T16:59:04;15.07;;;7.78;;
72379;SDS011;60354;47.798;12.472;2023-02-10T17:01:30;15.93;;;8.88;;